Viterbo, Italia

08:12 PM CEST del 02 Luglio 2015 (GMT +0200)
viterbo | | Change Station
CLOSE
Current Station
Stazione meteo personale
Location: Viterbo, LAZIO
Altitudine: 1170 ft
Stazioni meteo nelle vicinanze
Avvisi attivi: Extreme high temperature

Alt. 1170 ft 42.42 °N, 12.11 °E | Updated 12 minutes ago

Clear
Sereno
79.0 °F
Sembra 81 °F
N
4.0
Vento Variabile Vento da SSO

Oggi
Massima -- | Minima -- °F
--% Possibilità di precip.
Ieri
Massima -- | Minima -- °F
Precip. -- in
5:38 AM 8:52 PM
Gobba a ponente, 99% visible
Pressione 30.18 in
Visibilità -9999.0 miglia
Nuvole
Indice di calore 81 °F
Punto di rugiada 64 °F
Umidità 60%
Piovosità 0.00 in
Spessore del manto nevoso Non disponibile.
Raggi UV Non disponibile.
Polline Non disponibile.
Qualità dell'aria Non disponibile.
Flu Activity Non disponibile.
METAR LIRV 021755Z 22009KT CAVOK 27/21 Q1022 RMK SKC MON E SE LIB NC VIS MIN 9999 BLU

More Conditions Fewer Conditions

Pressione 30.18 in
Visibilità -9999.0 miglia
Nuvole
Indice di calore 81 °F
Punto di rugiada 64 °F
Umidità 60%
Piovosità 0.00 in
Spessore del manto nevoso Non disponibile.
Raggi UV Non disponibile.
Polline Non disponibile.
Qualità dell'aria Non disponibile.
Flu Activity Non disponibile.
METAR LIRV 021755Z 22009KT CAVOK 27/21 Q1022 RMK SKC MON E SE LIB NC VIS MIN 9999 BLU

More Conditions Fewer Conditions

10-Day Weather Forecast

×

Almanac

Astronomia

Jul. 02, 2015 Alba Tramonto
Ora attuale
Crepuscolo civile
Crepuscolo nautico
Crepuscolo astronomico
Luna
Estensione della luce visibile
Lunghezza del giorno
Tomorrow will be .
, % of the Moon is Illuminated

Gli estremi di oggi

Massime Regione Minime Regione

Community

WunderPhotos

Upload Photos

1,834,507 foto caricate!

WunderBlogs® & News

Nearby

Qualità dell'aria

  Qualità dell'aria Indice AQ Inquinante
Not available.

Profondità neve

Stazione Profondità Altitudine

Attività sismica

Città  Distanza Mag. Data & Ora
Minimo Magnitudo Mostrato è 2.5.

Temperature delle acque costiere

Località Temperatura

Stations

Stazioni meteo nelle vicinanze

Ubicazione della stazione Temp. Raffreddamento del vento Punto di rugiada Umidità Vento Precip. Alt. Aggiornato Tipo